Time;durP1;ratioP1;P1;durP2;ratioP2;P2;SDS_P1;SDS_P2;PMS_P1;PMS_P2;Temp;Humidity;BMP_temperature;BMP_pressure;BME280_temperature;BME280_humidity;BME280_pressure;Samples;Min_cycle;Max_cycle;Signal;HPM_P1;HPM_P2
2021/06/29 00:01:53;;;;;;;;;;;;;;;22.94;64.39;101036.41;5055573;28;1531;-64
2021/06/29 00:04:18;;;;;;;;;;;;;;;22.92;64.07;101038.47;5056657;28;938;-62
2021/06/29 00:06:43;;;;;;;;;;;;;;;22.85;64.04;101033.72;5056303;28;1921;-61
2021/06/29 00:09:08;;;;;;;;;;;;;;;22.82;64.50;101033.22;5056654;28;997;-61
2021/06/29 00:11:33;;;;;;;;;;;;;;;22.75;64.75;101026.78;5056717;28;1608;-60
2021/06/29 00:13:59;;;;;;;;;;;;;;;22.73;64.51;101024.22;5056237;28;937;-61
2021/06/29 00:16:24;;;;;;;;;;;;;;;22.81;64.40;101016.06;5055872;28;1827;-61
2021/06/29 00:18:49;;;;;;;;;;;;;;;22.85;64.18;101020.13;5056304;28;1215;-62
2021/06/29 00:21:14;;;;;;;;;;;;;;;22.80;64.55;101016.25;5055812;28;1596;-62
2021/06/29 00:23:39;;;;;;;;;;;;;;;22.74;64.36;101014.22;5056125;28;1769;-61
2021/06/29 00:26:04;;;;;;;;;;;;;;;22.78;64.27;101007.41;5055842;28;1910;-62
2021/06/29 00:28:29;;;;;;;;;;;;;;;22.76;64.47;100998.56;5055957;28;849;-62
2021/06/29 00:30:54;;;;;;;;;;;;;;;22.73;64.37;101002.50;5055766;28;850;-61
2021/06/29 00:33:20;;;;;;;;;;;;;;;22.72;64.49;101006.22;5055624;28;941;-61
2021/06/29 00:35:45;;;;;;;;;;;;;;;22.72;64.35;101005.38;5055797;28;1883;-62
2021/06/29 00:38:10;;;;;;;;;;;;;;;22.78;64.18;101012.84;5055674;28;1075;-62
2021/06/29 00:40:35;;;;;;;;;;;;;;;22.81;64.06;101009.78;5055600;28;1702;-62
2021/06/29 00:43:00;;;;;;;;;;;;;;;22.77;63.88;101012.00;5055345;28;823;-62
2021/06/29 00:45:25;;;;;;;;;;;;;;;22.70;64.31;101012.84;5055293;28;1788;-62
2021/06/29 00:47:50;;;;;;;;;;;;;;;22.69;64.32;101011.16;5055738;28;1953;-62
2021/06/29 00:50:15;;;;;;;;;;;;;;;22.72;63.98;101010.81;5055492;28;1777;-62
2021/06/29 00:52:40;;;;;;;;;;;;;;;22.76;64.12;101013.00;5055213;28;1749;-62
2021/06/29 00:55:05;;;;;;;;;;;;;;;22.78;64.11;101021.00;5055600;28;941;-62
2021/06/29 00:57:31;;;;;;;;;;;;;;;22.78;64.21;101012.84;5053897;28;1064;-62
2021/06/29 00:59:56;;;;;;;;;;;;;;;22.77;63.96;101016.59;5055660;28;1646;-62
2021/06/29 01:02:21;;;;;;;;;;;;;;;22.76;63.95;101006.69;5055320;28;1776;-62
2021/06/29 01:04:47;;;;;;;;;;;;;;;22.76;63.76;101013.00;5055408;28;1076;-61
2021/06/29 01:07:13;;;;;;;;;;;;;;;22.75;64.17;101016.72;5055119;28;1882;-62
2021/06/29 01:09:38;;;;;;;;;;;;;;;22.76;64.07;101012.13;5055476;28;807;-62
2021/06/29 01:12:03;;;;;;;;;;;;;;;22.74;64.17;100998.75;5055306;28;1701;-63
2021/06/29 01:14:28;;;;;;;;;;;;;;;22.73;63.92;100997.06;5054110;28;1604;-63
2021/06/29 01:16:54;;;;;;;;;;;;;;;22.73;63.71;100988.06;5055323;28;1001;-62
2021/06/29 01:19:21;;;;;;;;;;;;;;;22.73;63.71;100988.06;5054988;28;871;-62
2021/06/29 01:21:49;;;;;;;;;;;;;;;22.72;63.95;100978.22;5055178;28;1680;-62
2021/06/29 01:24:16;;;;;;;;;;;;;;;22.71;63.90;100976.50;5053960;28;1603;-62
2021/06/29 01:26:51;;;;;;;;;;;;;;;22.70;63.99;100983.81;5055227;28;1914;-62
2021/06/29 01:29:16;;;;;;;;;;;;;;;22.66;64.14;100977.03;5054872;28;807;-63
2021/06/29 01:31:41;;;;;;;;;;;;;;;22.65;64.01;100972.63;5054845;28;1747;-61
2021/06/29 01:34:06;;;;;;;;;;;;;;;22.65;63.96;100971.78;5054938;28;1816;-63
2021/06/29 01:36:34;;;;;;;;;;;;;;;22.64;64.10;100975.50;5055211;28;1529;-62
2021/06/29 01:38:59;;;;;;;;;;;;;;;22.68;64.03;100976.84;5054678;28;1742;-62
2021/06/29 01:41:25;;;;;;;;;;;;;;;22.65;63.98;100969.91;5055251;28;936;-62
2021/06/29 01:46:28;;;;;;;;;;;;;;;22.65;63.98;100966.34;5059067;28;1897;-62
2021/06/29 01:48:54;;;;;;;;;;;;;;;22.62;64.10;100955.81;5058771;28;1802;-62
2021/06/29 01:51:19;;;;;;;;;;;;;;;22.63;64.10;100954.78;5058943;28;1898;-60
2021/06/29 01:53:46;;;;;;;;;;;;;;;22.61;64.04;100954.13;5058721;28;910;-60
2021/06/29 01:56:14;;;;;;;;;;;;;;;22.59;64.27;100961.59;5058886;28;818;-60
2021/06/29 01:58:39;;;;;;;;;;;;;;;22.60;64.13;100955.13;5058398;28;1868;-60
2021/06/29 02:01:04;;;;;;;;;;;;;;;22.59;64.25;100951.56;5057391;28;1882;-60
2021/06/29 02:03:29;;;;;;;;;;;;;;;22.58;64.22;100949.88;5058681;28;1754;-60
2021/06/29 02:05:54;;;;;;;;;;;;;;;22.57;64.21;100947.38;5059023;28;1877;-62
2021/06/29 02:08:20;;;;;;;;;;;;;;;22.57;64.30;100960.94;5058642;28;1957;-62
2021/06/29 02:10:45;;;;;;;;;;;;;;;22.57;64.14;100959.09;5058459;28;957;-62
2021/06/29 02:13:10;;;;;;;;;;;;;;;22.56;64.12;100956.53;5058612;28;1005;-62
2021/06/29 02:15:36;;;;;;;;;;;;;;;22.55;64.13;100955.69;5058871;28;1691;-62
2021/06/29 02:18:01;;;;;;;;;;;;;;;22.54;64.14;100953.16;5057971;28;1721;-62
2021/06/29 02:20:26;;;;;;;;;;;;;;;22.51;64.08;100949.75;5058068;28;1057;-62
2021/06/29 02:22:52;;;;;;;;;;;;;;;22.49;64.26;100946.34;5058423;28;1013;-62
2021/06/29 02:25:17;;;;;;;;;;;;;;;22.50;64.15;100941.78;5058541;28;852;-62
2021/06/29 02:27:42;;;;;;;;;;;;;;;22.50;64.24;100942.63;5058463;28;1987;-62
2021/06/29 02:30:07;;;;;;;;;;;;;;;22.50;64.07;100953.50;5058566;28;962;-62
2021/06/29 02:32:32;;;;;;;;;;;;;;;22.49;64.24;100950.94;5056951;28;976;-62
2021/06/29 02:34:57;;;;;;;;;;;;;;;22.48;63.97;100947.38;5058269;28;2323;-63
2021/06/29 02:37:22;;;;;;;;;;;;;;;22.50;64.21;100944.50;5057837;28;1780;-63
2021/06/29 02:39:47;;;;;;;;;;;;;;;22.49;64.34;100940.06;5056483;28;1792;-63
2021/06/29 02:42:12;;;;;;;;;;;;;;;22.48;64.21;100933.81;5058222;28;835;-63
2021/06/29 02:44:38;;;;;;;;;;;;;;;22.47;64.30;100921.25;5058128;28;835;-62
2021/06/29 02:47:03;;;;;;;;;;;;;;;22.39;64.11;100923.97;5057358;28;1950;-61
2021/06/29 02:49:28;;;;;;;;;;;;;;;22.46;64.43;100924.97;5057765;28;1871;-61
2021/06/29 02:51:53;;;;;;;;;;;;;;;22.48;64.03;100924.81;5058023;28;893;-62
2021/06/29 02:54:18;;;;;;;;;;;;;;;22.48;64.23;100928.38;5056569;28;1624;-63
2021/06/29 02:56:43;;;;;;;;;;;;;;;22.46;64.14;100935.84;5057231;28;1570;-62
2021/06/29 02:59:08;;;;;;;;;;;;;;;22.47;64.19;100934.81;5057687;28;779;-62
2021/06/29 03:01:33;;;;;;;;;;;;;;;22.47;64.04;100932.09;5057634;28;779;-61
2021/06/29 03:03:58;;;;;;;;;;;;;;;22.45;64.08;100934.16;5055779;28;1649;-62
2021/06/29 03:06:23;;;;;;;;;;;;;;;22.44;64.20;100926.16;5057072;28;1959;-62
2021/06/29 03:08:49;;;;;;;;;;;;;;;22.44;64.04;100920.72;5057230;28;1741;-61
2021/06/29 03:11:14;;;;;;;;;;;;;;;22.44;64.00;100915.31;5056576;28;1740;-62
2021/06/29 03:13:39;;;;;;;;;;;;;;;22.43;64.10;100919.03;5055343;28;1367;-60
2021/06/29 03:16:06;;;;;;;;;;;;;;;22.42;64.11;100920.06;5056435;28;1371;-61
2021/06/29 03:18:31;;;;;;;;;;;;;;;22.41;64.16;100921.94;5056708;28;1297;-62
2021/06/29 03:20:56;;;;;;;;;;;;;;;22.41;64.20;100921.06;5055916;28;1439;-62
2021/06/29 03:23:21;;;;;;;;;;;;;;;22.41;64.24;100916.50;5056247;28;1563;-62
2021/06/29 03:25:46;;;;;;;;;;;;;;;22.41;64.18;100916.50;5055623;28;1464;-60
2021/06/29 03:28:14;;;;;;;;;;;;;;;22.39;64.07;100921.25;5056048;28;1973;-63
2021/06/29 03:30:39;;;;;;;;;;;;;;;22.39;63.94;100923.97;5056014;28;1443;-61
2021/06/29 03:33:04;;;;;;;;;;;;;;;22.39;64.07;100918.53;5056013;28;1517;-61
2021/06/29 03:35:29;;;;;;;;;;;;;;;22.40;64.08;100912.09;5056167;28;1430;-60
2021/06/29 03:37:54;;;;;;;;;;;;;;;22.38;64.07;100911.44;5056652;28;1004;-60
2021/06/29 03:40:19;;;;;;;;;;;;;;;22.35;64.00;100902.78;5056058;28;1574;-62
2021/06/29 03:42:44;;;;;;;;;;;;;;;22.35;64.15;100894.66;5055958;28;1864;-61
2021/06/29 03:45:10;;;;;;;;;;;;;;;22.32;64.16;100884.97;5055708;28;1439;-62
2021/06/29 03:47:35;;;;;;;;;;;;;;;22.33;63.82;100885.81;5055716;28;1906;-63
2021/06/29 03:50:03;;;;;;;;;;;;;;;22.33;64.07;100892.09;5055892;28;1364;-62
2021/06/29 03:52:28;;;;;;;;;;;;;;;22.32;64.16;100892.28;5055634;28;1365;-63
2021/06/29 03:54:53;;;;;;;;;;;;;;;22.31;64.09;100894.13;5055942;28;1352;-62
2021/06/29 03:57:18;;;;;;;;;;;;;;;22.32;64.11;100887.69;5056238;28;1009;-61
2021/06/29 03:59:43;;;;;;;;;;;;;;;22.31;64.05;100893.28;5056214;28;857;-62
2021/06/29 04:02:08;;;;;;;;;;;;;;;22.31;64.25;100893.28;5056355;28;818;-62
2021/06/29 04:04:33;;;;;;;;;;;;;;;22.31;64.04;100887.84;5055831;28;1635;-62
2021/06/29 04:07:01;;;;;;;;;;;;;;;22.29;63.98;100888.03;5054536;28;1902;-62
2021/06/29 04:09:26;;;;;;;;;;;;;;;22.27;64.29;100892.78;5055820;28;1658;-62
2021/06/29 04:11:51;;;;;;;;;;;;;;;22.29;64.10;100901.59;5055615;28;1717;-63
2021/06/29 04:14:16;;;;;;;;;;;;;;;22.28;64.18;100899.06;5055804;28;1631;-63
2021/06/29 04:16:41;;;;;;;;;;;;;;;22.27;64.05;100898.22;5055580;28;1768;-62
2021/06/29 04:19:06;;;;;;;;;;;;;;;22.28;63.88;100899.91;5055921;28;1663;-63
2021/06/29 04:21:31;;;;;;;;;;;;;;;22.28;64.00;100901.78;5055853;28;1824;-62
2021/06/29 04:23:56;;;;;;;;;;;;;;;22.28;63.83;100899.91;5054444;28;1593;-63
2021/06/29 04:26:21;;;;;;;;;;;;;;;22.28;63.92;100904.50;5055335;28;1973;-63
2021/06/29 04:28:47;;;;;;;;;;;;;;;22.26;63.86;100904.66;5055566;28;879;-63
2021/06/29 04:31:12;;;;;;;;;;;;;;;22.24;63.83;100904.00;5055258;28;1646;-61
2021/06/29 04:33:37;;;;;;;;;;;;;;;22.25;63.87;100907.56;5054813;28;1764;-62
2021/06/29 04:36:02;;;;;;;;;;;;;;;22.24;63.67;100917.56;5055665;28;1141;-61
2021/06/29 04:38:27;;;;;;;;;;;;;;;22.24;63.96;100912.13;5055843;28;1939;-61
2021/06/29 04:40:52;;;;;;;;;;;;;;;22.23;63.96;100910.44;5054724;28;1751;-62
2021/06/29 04:43:17;;;;;;;;;;;;;;;22.22;64.05;100900.59;5055287;28;1648;-59
2021/06/29 04:45:42;;;;;;;;;;;;;;;22.22;63.99;100903.31;5055283;28;1704;-60
2021/06/29 04:48:07;;;;;;;;;;;;;;;22.31;63.87;100904.16;5055062;28;1963;-60
2021/06/29 04:50:33;;;;;;;;;;;;;;;22.45;65.30;100904.28;5055600;28;1622;-61
2021/06/29 04:52:58;;;;;;;;;;;;;;;22.44;66.24;100910.72;5054885;28;1750;-62
2021/06/29 04:55:23;;;;;;;;;;;;;;;22.44;65.98;100899.84;5053484;28;1731;-63
2021/06/29 04:57:48;;;;;;;;;;;;;;;22.45;65.66;100904.28;5054966;28;878;-62
2021/06/29 05:00:14;;;;;;;;;;;;;;;22.47;65.31;100904.09;5055090;28;1520;-61
2021/06/29 05:02:39;;;;;;;;;;;;;;;22.45;65.01;100900.72;5055670;28;833;-63
2021/06/29 05:05:04;;;;;;;;;;;;;;;22.47;65.01;100902.22;5055429;28;938;-62
2021/06/29 05:07:30;;;;;;;;;;;;;;;22.46;64.71;100903.25;5055165;28;1890;-62
2021/06/29 05:09:55;;;;;;;;;;;;;;;22.40;64.83;100893.06;5055162;28;1546;-60
2021/06/29 05:12:20;;;;;;;;;;;;;;;22.38;64.40;100888.88;5054664;28;1559;-62
2021/06/29 05:14:45;;;;;;;;;;;;;;;22.37;64.31;100898.03;5054686;28;1575;-62
2021/06/29 05:17:10;;;;;;;;;;;;;;;22.35;64.42;100900.91;5054059;28;1749;-62
2021/06/29 05:19:35;;;;;;;;;;;;;;;22.34;64.20;100901.94;5054404;28;1696;-62
2021/06/29 05:22:00;;;;;;;;;;;;;;;22.35;64.33;100900.91;5053350;28;1396;-61
2021/06/29 05:24:25;;;;;;;;;;;;;;;22.35;64.22;100906.34;5054111;28;1340;-61
2021/06/29 05:26:50;;;;;;;;;;;;;;;22.33;64.48;100908.41;5052838;28;1906;-62
2021/06/29 05:29:34;;;;;;;;;;;;;;;22.35;64.40;100908.22;5056577;28;1643;-63
2021/06/29 05:31:59;;;;;;;;;;;;;;;22.32;64.34;100912.13;5054616;28;1791;-62
2021/06/29 05:34:24;;;;;;;;;;;;;;;22.31;64.39;100915.00;5054383;28;1740;-62
2021/06/29 05:36:49;;;;;;;;;;;;;;;22.31;64.18;100915.00;5054095;28;1630;-63
2021/06/29 05:39:17;;;;;;;;;;;;;;;22.31;64.18;100905.00;5053446;28;1665;-63
2021/06/29 05:41:42;;;;;;;;;;;;;;;22.31;63.86;100904.16;5054642;28;1659;-62
2021/06/29 05:44:07;;;;;;;;;;;;;;;22.31;64.12;100907.72;5054004;28;1754;-62
2021/06/29 05:46:32;;;;;;;;;;;;;;;22.32;64.19;100911.28;5053692;28;1898;-63
2021/06/29 05:48:57;;;;;;;;;;;;;;;22.33;64.22;100923.84;5054054;28;1660;-63
2021/06/29 05:51:22;;;;;;;;;;;;;;;22.32;64.09;100923.00;5054194;28;1720;-63
2021/06/29 05:53:47;;;;;;;;;;;;;;;22.29;64.41;100931.47;5054792;28;1760;-63
2021/06/29 05:56:12;;;;;;;;;;;;;;;22.33;64.21;100929.25;5053676;28;1605;-62
2021/06/29 05:58:38;;;;;;;;;;;;;;;22.32;64.69;100933.00;5054052;28;1425;-62
2021/06/29 06:01:03;;;;;;;;;;;;;;;22.29;64.47;100934.19;5054619;28;1429;-61
2021/06/29 06:03:28;;;;;;;;;;;;;;;22.30;64.40;100935.88;5054629;28;972;-61
2021/06/29 06:05:53;;;;;;;;;;;;;;;22.28;64.39;100935.22;5054595;28;1805;-61
2021/06/29 06:08:18;;;;;;;;;;;;;;;22.08;64.74;100932.03;5054638;28;1898;-61
2021/06/29 06:10:43;;;;;;;;;;;;;;;22.16;64.61;100928.47;5054079;28;1623;-61
2021/06/29 06:13:08;;;;;;;;;;;;;;;22.03;65.12;100937.13;5054286;28;1762;-61
2021/06/29 06:15:33;;;;;;;;;;;;;;;22.09;64.56;100944.56;5053896;28;1571;-62
2021/06/29 06:17:58;;;;;;;;;;;;;;;22.21;64.82;100936.94;5053903;28;2404;-61
2021/06/29 06:20:23;;;;;;;;;;;;;;;22.17;64.48;100935.59;5052721;28;895;-61
2021/06/29 06:22:48;;;;;;;;;;;;;;;22.09;64.73;100930.16;5054483;28;965;-61
2021/06/29 06:25:14;;;;;;;;;;;;;;;22.11;65.08;100925.41;5053578;28;1716;-62
2021/06/29 06:27:39;;;;;;;;;;;;;;;22.01;65.48;100941.03;5055261;28;1923;-62
2021/06/29 06:30:04;;;;;;;;;;;;;;;22.00;65.55;100934.75;5056166;28;1817;-62
2021/06/29 06:32:29;;;;;;;;;;;;;;;21.99;65.75;100930.31;5058599;28;1864;-62
2021/06/29 06:34:54;;;;;;;;;;;;;;;21.78;66.27;100930.00;5066397;28;1439;-62
2021/06/29 06:37:19;;;;;;;;;;;;;;;21.69;66.58;100937.28;5058302;28;1577;-62
2021/06/29 06:39:44;;;;;;;;;;;;;;;21.48;67.35;100934.22;5057593;28;1794;-62
2021/06/29 06:42:09;;;;;;;;;;;;;;;21.69;66.56;100937.28;5058415;28;1694;-62
2021/06/29 06:44:34;;;;;;;;;;;;;;;21.64;66.70;100939.66;5068895;28;1741;-62
2021/06/29 06:46:59;;;;;;;;;;;;;;;21.69;66.28;100939.13;5068614;28;1917;-61
2021/06/29 06:49:24;;;;;;;;;;;;;;;21.62;66.51;100946.28;5058129;28;1867;-61
2021/06/29 06:51:49;;;;;;;;;;;;;;;21.90;65.95;100944.06;5069003;28;1734;-62
2021/06/29 06:54:14;;;;;;;;;;;;;;;22.02;65.21;100937.31;5062393;28;1473;-61
2021/06/29 06:56:40;;;;;;;;;;;;;;;21.75;66.02;100935.75;5061310;28;1428;-61
2021/06/29 06:59:05;;;;;;;;;;;;;;;22.01;65.37;100939.19;5058149;28;1722;-61
2021/06/29 07:01:30;;;;;;;;;;;;;;;22.03;65.07;100947.16;5057313;28;1683;-61
2021/06/29 07:03:55;;;;;;;;;;;;;;;22.13;64.96;100935.06;5057154;28;1567;-62
2021/06/29 07:06:20;;;;;;;;;;;;;;;22.08;65.66;100945.59;5055655;28;1926;-61
2021/06/29 07:08:45;;;;;;;;;;;;;;;21.95;65.51;100936.25;5059306;28;1455;-62
2021/06/29 07:11:10;;;;;;;;;;;;;;;21.87;66.14;100928.09;5061805;28;1490;-62
2021/06/29 07:13:36;;;;;;;;;;;;;;;21.91;66.08;100935.75;5071310;28;1460;-62
2021/06/29 07:16:01;;;;;;;;;;;;;;;21.78;66.91;100932.72;5060572;28;1435;-62
2021/06/29 07:18:26;;;;;;;;;;;;;;;21.87;66.20;100941.69;5060704;28;1668;-61
2021/06/29 07:20:51;;;;;;;;;;;;;;;21.88;66.08;100946.09;5060315;28;1658;-62
2021/06/29 07:23:16;;;;;;;;;;;;;;;21.74;66.45;100940.34;5056126;28;1598;-61
2021/06/29 07:25:41;;;;;;;;;;;;;;;21.78;66.78;100933.56;5060161;28;1810;-61
2021/06/29 07:28:06;;;;;;;;;;;;;;;21.71;66.87;100937.94;5058679;28;1987;-61
2021/06/29 07:30:31;;;;;;;;;;;;;;;21.74;67.25;100940.34;5061406;28;1440;-63
2021/06/29 07:32:58;;;;;;;;;;;;;;;21.74;67.05;100931.34;5063134;28;1434;-61
2021/06/29 07:35:23;;;;;;;;;;;;;;;21.67;66.80;100928.47;5060312;28;1694;-62
2021/06/29 07:37:48;;;;;;;;;;;;;;;21.87;66.09;100930.81;5060432;28;1783;-62
2021/06/29 07:40:13;;;;;;;;;;;;;;;22.04;65.73;100927.09;5058457;28;1463;-62
2021/06/29 07:42:38;;;;;;;;;;;;;;;21.88;66.38;100927.94;5061753;28;1521;-62
2021/06/29 07:45:04;;;;;;;;;;;;;;;21.73;66.78;100933.22;5062290;28;1645;-61
2021/06/29 07:47:29;;;;;;;;;;;;;;;21.81;66.70;100935.94;5059372;28;1901;-61
2021/06/29 07:49:54;;;;;;;;;;;;;;;21.79;67.06;100937.97;5058630;28;1604;-62
2021/06/29 07:52:19;;;;;;;;;;;;;;;21.49;67.73;100930.50;5060406;28;1487;-61
2021/06/29 07:54:44;;;;;;;;;;;;;;;21.72;66.89;100936.94;5055274;28;1662;-62
2021/06/29 07:57:10;;;;;;;;;;;;;;;21.78;66.65;100930.84;5055664;28;1725;-61
2021/06/29 07:59:35;;;;;;;;;;;;;;;21.55;67.76;100927.09;5055598;28;1605;-61
2021/06/29 08:02:00;;;;;;;;;;;;;;;21.47;68.16;100932.53;5056090;28;1660;-62
2021/06/29 08:04:25;;;;;;;;;;;;;;;21.51;67.71;100939.28;5056983;28;957;-61
2021/06/29 08:06:50;;;;;;;;;;;;;;;21.52;68.28;100937.44;5056572;28;1885;-61
2021/06/29 08:09:15;;;;;;;;;;;;;;;21.71;67.14;100939.81;5056694;28;1772;-61
2021/06/29 08:11:40;;;;;;;;;;;;;;;21.80;67.07;100939.66;5056293;28;1771;-61
2021/06/29 08:14:05;;;;;;;;;;;;;;;21.85;66.85;100952.72;5056283;28;1013;-61
2021/06/29 08:16:30;;;;;;;;;;;;;;;21.64;67.43;100947.81;5056440;28;957;-61
2021/06/29 08:18:55;;;;;;;;;;;;;;;21.67;67.16;100942.03;5056224;28;1916;-61
2021/06/29 08:21:20;;;;;;;;;;;;;;;21.79;66.72;100937.97;5056145;28;1013;-61
2021/06/29 08:23:46;;;;;;;;;;;;;;;21.88;66.65;100943.38;5056194;28;977;-62
2021/06/29 08:26:11;;;;;;;;;;;;;;;22.02;66.12;100942.75;5055532;28;1602;-61
2021/06/29 08:28:36;;;;;;;;;;;;;;;22.06;66.36;100944.06;5055811;28;1937;-61
2021/06/29 08:31:01;;;;;;;;;;;;;;;22.03;66.23;100944.44;5056003;28;1020;-61
2021/06/29 08:33:26;;;;;;;;;;;;;;;21.73;66.53;100944.06;5056057;28;826;-61
2021/06/29 08:35:53;;;;;;;;;;;;;;;21.56;66.90;100941.50;5055910;28;933;-61
2021/06/29 08:38:18;;;;;;;;;;;;;;;21.78;66.31;100941.69;5055739;28;1834;-62
2021/06/29 08:40:43;;;;;;;;;;;;;;;22.03;66.10;100939.00;5055063;28;1574;-62
2021/06/29 08:43:08;;;;;;;;;;;;;;;21.92;66.10;100945.59;5055376;28;1590;-61
2021/06/29 08:45:33;;;;;;;;;;;;;;;21.89;66.37;100939.63;5055465;28;1659;-61
2021/06/29 08:47:58;;;;;;;;;;;;;;;21.81;66.52;100941.34;5055698;28;1941;-61
2021/06/29 08:50:24;;;;;;;;;;;;;;;21.88;66.50;100940.66;5055570;28;852;-61
2021/06/29 08:52:49;;;;;;;;;;;;;;;21.89;66.44;100937.78;5055105;28;827;-61
2021/06/29 08:55:15;;;;;;;;;;;;;;;22.01;66.00;100936.47;5055802;28;1009;-62
2021/06/29 08:57:40;;;;;;;;;;;;;;;22.08;66.08;100937.44;5055369;28;1711;-61
2021/06/29 09:00:05;;;;;;;;;;;;;;;22.13;65.63;100942.38;5055539;28;811;-61
2021/06/29 09:02:30;;;;;;;;;;;;;;;22.17;65.46;100949.16;5055208;28;1164;-61
2021/06/29 09:04:56;;;;;;;;;;;;;;;22.21;65.43;100946.94;5055376;28;1799;-61
2021/06/29 09:07:21;;;;;;;;;;;;;;;22.21;65.22;100947.81;5055223;28;1953;-61
2021/06/29 09:09:46;;;;;;;;;;;;;;;21.92;66.08;100952.88;5055296;28;898;-61
2021/06/29 09:12:11;;;;;;;;;;;;;;;21.82;66.61;100951.19;5055329;28;1562;-61
2021/06/29 09:14:38;;;;;;;;;;;;;;;21.95;65.78;100949.81;5055237;28;1762;-61
2021/06/29 09:17:03;;;;;;;;;;;;;;;21.95;65.88;100952.53;5055399;28;1904;-61
2021/06/29 09:19:29;;;;;;;;;;;;;;;21.96;65.83;100954.22;5055370;28;1017;-61
2021/06/29 09:21:54;;;;;;;;;;;;;;;22.09;65.47;100955.44;5054959;28;1560;-61
2021/06/29 09:24:19;;;;;;;;;;;;;;;22.14;65.28;100953.06;5053041;28;1551;-61
2021/06/29 09:26:44;;;;;;;;;;;;;;;22.02;65.55;100953.59;5054277;28;1914;-61
2021/06/29 09:29:09;;;;;;;;;;;;;;;22.09;65.47;100951.88;5054592;28;1723;-61
2021/06/29 09:31:34;;;;;;;;;;;;;;;22.03;65.80;100947.16;5054685;28;1706;-62
2021/06/29 09:33:59;;;;;;;;;;;;;;;21.80;66.53;100952.38;5055061;28;1831;-61
2021/06/29 09:36:25;;;;;;;;;;;;;;;21.67;67.00;100955.59;5054710;28;1002;-61
2021/06/29 09:38:50;;;;;;;;;;;;;;;21.80;66.25;100946.94;5055204;28;815;-61
2021/06/29 09:41:15;;;;;;;;;;;;;;;21.81;66.17;100941.34;5054435;28;866;-62
2021/06/29 09:43:40;;;;;;;;;;;;;;;21.80;66.26;100950.50;5054794;28;1834;-62
2021/06/29 09:46:05;;;;;;;;;;;;;;;21.68;66.56;100943.72;5054778;28;926;-62
2021/06/29 09:48:30;;;;;;;;;;;;;;;21.75;66.30;100946.59;5054893;28;1949;-62
2021/06/29 09:50:59;;;;;;;;;;;;;;;21.97;65.51;100939.66;5054542;28;850;-62
2021/06/29 09:53:25;;;;;;;;;;;;;;;22.08;65.42;100931.16;5054180;28;1758;-62
2021/06/29 09:55:50;;;;;;;;;;;;;;;22.07;65.69;100941.19;5055030;28;947;-61
2021/06/29 09:58:15;;;;;;;;;;;;;;;22.09;65.53;100949.16;5053804;28;902;-62
2021/06/29 10:00:41;;;;;;;;;;;;;;;22.11;65.48;100947.13;5054525;28;916;-62
2021/06/29 10:03:06;;;;;;;;;;;;;;;22.02;65.83;100948.16;5054874;28;1781;-61
2021/06/29 10:05:32;;;;;;;;;;;;;;;21.94;65.88;100948.97;5058396;28;1679;-62
2021/06/29 10:07:57;;;;;;;;;;;;;;;21.90;66.05;100944.06;5058610;28;1947;-62
2021/06/29 10:10:22;;;;;;;;;;;;;;;21.83;66.16;100946.63;5059171;28;1679;-62
2021/06/29 10:12:47;;;;;;;;;;;;;;;21.90;65.94;100950.31;5058174;28;1727;-62
2021/06/29 10:15:12;;;;;;;;;;;;;;;22.01;65.66;100952.75;5058031;28;1655;-62
2021/06/29 10:17:38;;;;;;;;;;;;;;;21.95;65.88;100952.53;5057353;28;1712;-62
2021/06/29 10:20:24;;;;;;;;;;;;;;;21.98;65.63;100941.34;5057658;28;1665;-62
2021/06/29 10:22:50;;;;;;;;;;;;;;;21.81;66.36;100949.50;5054303;28;1613;-62
2021/06/29 10:25:16;;;;;;;;;;;;;;;21.78;66.50;100957.97;5056975;28;1643;-62
2021/06/29 10:27:41;;;;;;;;;;;;;;;21.99;65.94;100953.91;5055293;28;1917;-62
2021/06/29 10:30:06;;;;;;;;;;;;;;;21.89;65.42;100959.47;5055459;28;1736;-62
2021/06/29 10:32:31;;;;;;;;;;;;;;;21.92;66.00;100963.72;5057173;28;1733;-62
2021/06/29 10:34:56;;;;;;;;;;;;;;;21.89;65.54;100961.34;5057183;28;1542;-62
2021/06/29 10:37:21;;;;;;;;;;;;;;;21.93;65.55;100965.41;5057485;28;1551;-62
2021/06/29 10:39:46;;;;;;;;;;;;;;;21.99;65.45;100970.19;5058286;28;1025;-62
2021/06/29 10:42:11;;;;;;;;;;;;;;;21.99;65.44;100960.19;5057574;28;1822;-62
2021/06/29 10:44:37;;;;;;;;;;;;;;;21.93;65.55;100970.84;5057955;28;1181;-62
2021/06/29 10:47:02;;;;;;;;;;;;;;;21.60;66.03;100965.41;5056714;28;1902;-61
2021/06/29 10:49:27;;;;;;;;;;;;;;;21.72;65.53;100958.63;5056641;28;1685;-62
2021/06/29 10:51:52;;;;;;;;;;;;;;;21.66;65.35;100959.34;5056805;28;1840;-62
2021/06/29 10:54:17;;;;;;;;;;;;;;;21.70;65.64;100960.66;5057160;28;1796;-62
2021/06/29 10:56:43;;;;;;;;;;;;;;;21.82;65.42;100972.06;5058032;28;823;-62
2021/06/29 10:59:08;;;;;;;;;;;;;;;21.81;65.73;100963.06;5056097;28;1931;-61
2021/06/29 11:01:34;;;;;;;;;;;;;;;21.82;65.22;100967.47;5056440;28;1683;-62
2021/06/29 11:03:59;;;;;;;;;;;;;;;21.87;65.24;100971.53;5056286;28;1703;-62
2021/06/29 11:06:24;;;;;;;;;;;;;;;21.82;65.10;100963.91;5057428;28;1886;-62
2021/06/29 11:08:49;;;;;;;;;;;;;;;21.85;65.14;100962.72;5057395;28;1549;-63
2021/06/29 11:11:15;;;;;;;;;;;;;;;21.82;65.48;100969.34;5057570;28;1670;-62
2021/06/29 11:13:40;;;;;;;;;;;;;;;21.84;65.47;100961.88;5057377;28;1710;-61
2021/06/29 11:16:05;;;;;;;;;;;;;;;21.91;64.71;100964.75;5070993;28;1656;-62
2021/06/29 11:18:30;;;;;;;;;;;;;;;21.89;64.84;100964.91;5057758;28;1739;-61
2021/06/29 11:20:55;;;;;;;;;;;;;;;21.98;65.17;100968.47;5057229;28;925;-62
2021/06/29 11:23:20;;;;;;;;;;;;;;;21.94;64.62;100967.13;5057586;28;910;-61
2021/06/29 11:25:45;;;;;;;;;;;;;;;21.91;64.76;100970.16;5057081;28;1763;-62
2021/06/29 11:28:10;;;;;;;;;;;;;;;22.00;64.56;100966.47;5057272;28;1922;-61
2021/06/29 11:30:35;;;;;;;;;;;;;;;21.98;64.41;100963.91;5059454;28;1987;-62
2021/06/29 11:33:00;;;;;;;;;;;;;;;21.91;64.50;100953.88;5048574;28;1491;-61
2021/06/29 11:35:25;;;;;;;;;;;;;;;22.01;64.40;100958.16;5068060;28;1537;-62
2021/06/29 11:37:51;;;;;;;;;;;;;;;22.00;64.56;100961.91;5073079;28;1719;-62
2021/06/29 11:40:16;;;;;;;;;;;;;;;21.85;64.59;100957.31;5060236;28;1432;-62
2021/06/29 11:42:41;;;;;;;;;;;;;;;21.57;65.16;100965.75;5071693;28;1491;-61
2021/06/29 11:45:06;;;;;;;;;;;;;;;21.62;64.79;100976.09;5056641;28;1739;-62
2021/06/29 11:47:31;;;;;;;;;;;;;;;21.83;64.97;100968.31;5056256;28;1893;-62
2021/06/29 11:49:58;;;;;;;;;;;;;;;21.99;64.25;100967.47;5070495;28;1535;-62
2021/06/29 11:52:25;;;;;;;;;;;;;;;21.89;64.80;100955.91;5059900;28;1565;-62
2021/06/29 11:54:51;;;;;;;;;;;;;;;21.92;64.57;100951.00;5070631;28;1837;-62
2021/06/29 11:57:16;;;;;;;;;;;;;;;21.96;64.14;100949.66;5066188;28;1436;-62
2021/06/29 11:59:41;;;;;;;;;;;;;;;21.88;64.40;100951.50;5060648;28;1738;-62
2021/06/29 12:02:06;;;;;;;;;;;;;;;21.80;64.31;100955.09;5059737;28;1662;-63
2021/06/29 12:04:31;;;;;;;;;;;;;;;21.75;64.74;100947.44;5055987;28;1609;-60
2021/06/29 12:06:56;;;;;;;;;;;;;;;21.81;64.83;100938.66;5056316;28;1957;-60
2021/06/29 12:09:21;;;;;;;;;;;;;;;21.90;64.29;100944.06;5067055;28;1559;-61
2021/06/29 12:11:46;;;;;;;;;;;;;;;22.03;64.11;100949.88;5060217;28;1550;-62
2021/06/29 12:14:11;;;;;;;;;;;;;;;22.10;63.68;100948.13;5057753;28;1765;-61
2021/06/29 12:16:36;;;;;;;;;;;;;;;22.13;63.54;100942.38;5058440;28;1803;-61
2021/06/29 12:19:01;;;;;;;;;;;;;;;22.03;63.55;100939.84;5053713;28;1626;-61
2021/06/29 12:21:27;;;;;;;;;;;;;;;22.15;63.25;100932.19;5057548;28;1680;-62
2021/06/29 12:23:52;;;;;;;;;;;;;;;22.08;63.67;100932.03;5055138;28;1646;-63
2021/06/29 12:26:17;;;;;;;;;;;;;;;22.09;63.60;100928.28;5055387;28;1510;-63
2021/06/29 12:28:42;;;;;;;;;;;;;;;22.13;63.47;100934.22;5056831;28;1890;-62
2021/06/29 12:31:08;;;;;;;;;;;;;;;22.11;63.25;100933.53;5056498;28;2770;-62
2021/06/29 12:33:34;;;;;;;;;;;;;;;22.14;63.10;100938.63;5055725;28;1725;-61
2021/06/29 12:35:59;;;;;;;;;;;;;;;22.19;63.26;100941.69;5057866;28;1818;-62
2021/06/29 12:38:25;;;;;;;;;;;;;;;22.13;63.54;100942.38;5055354;28;1516;-63
2021/06/29 12:40:50;;;;;;;;;;;;;;;22.00;63.22;100944.78;5058431;28;1561;-62